createdAt,value
2023-01-08T01:14:45.315Z,19.07
2023-01-08T01:45:36.469Z,38.10
2023-01-08T02:17:51.384Z,29.20
2023-01-08T02:28:17.071Z,33.10
2023-01-08T02:33:18.276Z,31.47
2023-01-08T02:38:15.577Z,23.67
2023-01-08T02:48:58.031Z,33.13
2023-01-08T02:59:07.364Z,28.63
2023-01-08T03:04:10.732Z,19.70
2023-01-08T03:09:02.637Z,22.57
2023-01-08T03:14:15.862Z,16.20
2023-01-08T03:19:32.604Z,23.03
2023-01-08T03:24:39.470Z,28.63
2023-01-08T03:29:34.887Z,19.70
2023-01-08T03:34:30.379Z,18.50
2023-01-08T03:39:38.058Z,18.00
2023-01-08T03:44:29.890Z,26.37
2023-01-08T03:54:35.407Z,19.63
2023-01-08T03:59:27.183Z,20.87
2023-01-08T04:04:19.070Z,18.83
2023-01-08T04:09:10.867Z,19.80
2023-01-08T04:14:02.822Z,22.43
2023-01-08T04:18:54.531Z,35.17
2023-01-08T04:23:47.091Z,22.33
2023-01-08T04:28:38.868Z,25.80
2023-01-08T04:33:34.565Z,18.07
2023-01-08T04:38:26.367Z,30.77
2023-01-08T04:43:18.123Z,20.93
2023-01-08T04:48:10.916Z,24.00
2023-01-08T04:53:02.601Z,25.50
2023-01-08T04:57:54.279Z,18.80
2023-01-08T05:02:46.457Z,18.27
2023-01-08T05:07:38.214Z,24.83
2023-01-08T05:12:29.964Z,24.53
2023-01-08T05:17:21.734Z,22.93
2023-01-08T05:22:13.759Z,25.20
2023-01-08T05:27:06.069Z,32.60
2023-01-08T05:31:57.899Z,27.07
2023-01-08T05:36:50.025Z,27.40
2023-01-08T05:41:41.809Z,37.20
2023-01-08T05:46:33.738Z,24.50
2023-01-08T05:51:26.084Z,45.90
2023-01-08T05:56:18.480Z,36.87
2023-01-08T06:01:20.189Z,28.30
2023-01-08T06:06:13.256Z,25.07
2023-01-08T06:11:09.670Z,27.73
2023-01-08T06:16:03.506Z,43.03
2023-01-08T06:20:55.795Z,29.07
2023-01-08T06:25:57.167Z,24.20
2023-01-08T06:30:49.402Z,42.60
2023-01-08T06:35:41.268Z,40.10
2023-01-08T06:40:33.178Z,27.73
2023-01-08T06:45:26.169Z,33.07
2023-01-08T06:50:20.870Z,25.13
2023-01-08T06:55:13.038Z,24.50
2023-01-08T07:00:06.613Z,23.90
2023-01-08T07:04:59.022Z,25.80
2023-01-08T07:09:51.254Z,20.60
2023-01-08T07:14:46.555Z,20.80
2023-01-08T07:19:38.571Z,17.60
2023-01-08T07:24:30.595Z,17.93
2023-01-08T07:29:22.459Z,17.17
2023-01-08T07:34:18.132Z,19.30
2023-01-08T07:39:14.894Z,18.37
2023-01-08T07:49:12.854Z,19.53
2023-01-08T07:54:05.277Z,19.10
2023-01-08T07:58:57.465Z,17.27
2023-01-08T08:03:53.333Z,16.37
2023-01-08T08:08:45.816Z,19.40
2023-01-08T08:13:42.566Z,17.47
2023-01-08T08:18:34.999Z,19.80
2023-01-08T08:23:28.736Z,17.63
2023-01-08T08:28:21.228Z,18.30
2023-01-08T08:33:21.306Z,17.50
2023-01-08T08:38:13.284Z,19.50
2023-01-08T08:43:06.406Z,22.17
2023-01-08T08:53:06.997Z,26.27
2023-01-08T08:58:25.840Z,26.10
2023-01-08T09:03:21.987Z,23.60
2023-01-08T09:08:14.480Z,25.77
2023-01-08T09:13:06.644Z,25.83
2023-01-08T09:18:07.206Z,21.73
2023-01-08T09:23:10.605Z,18.87
2023-01-08T09:28:12.969Z,22.33
2023-01-08T09:38:12.553Z,20.50
2023-01-08T09:43:09.601Z,19.53
2023-01-08T17:40:53.813Z,18.30
2023-01-08T17:45:55.099Z,17.10
2023-01-08T17:50:48.403Z,19.13
2023-01-08T17:55:41.423Z,16.70
2023-01-08T18:00:33.214Z,15.17
2023-01-08T18:05:25.274Z,16.57
2023-01-08T18:10:18.612Z,15.20
2023-01-08T18:15:10.971Z,16.83
2023-01-08T18:20:02.779Z,16.80
2023-01-08T18:24:54.597Z,17.23
2023-01-08T18:29:46.462Z,15.57
2023-01-08T18:34:39.192Z,14.43
2023-01-08T18:39:31.865Z,14.30
2023-01-08T18:44:27.774Z,15.90
2023-01-08T18:49:21.800Z,15.37
2023-01-08T18:54:13.685Z,16.27
2023-01-08T18:59:08.269Z,19.60
2023-01-08T19:04:03.926Z,18.67
2023-01-08T19:09:00.830Z,21.50
2023-01-08T19:13:57.349Z,20.67
2023-01-08T19:44:23.542Z,17.77
2023-01-08T20:25:28.574Z,21.10
2023-01-08T20:35:35.055Z,20.43
2023-01-08T21:16:51.836Z,18.07
2023-01-08T23:19:53.439Z,13.47
2023-01-08T23:29:52.062Z,9.97
2023-01-08T23:34:47.828Z,12.00
2023-01-08T23:39:40.917Z,9.87
2023-01-08T23:49:40.799Z,10.80
2023-01-08T23:54:33.149Z,10.87
2023-01-08T23:59:26.186Z,11.20
